sensor_id;sensor_type;location;lat;lon;timestamp;temperature;humidity
13960;DHT22;7052;51.050;3.716;2022-11-03T00:01:14;13.20;99.90
13960;DHT22;7052;51.050;3.716;2022-11-03T00:03:41;13.20;99.90
13960;DHT22;7052;51.050;3.716;2022-11-03T00:06:08;13.30;99.90
13960;DHT22;7052;51.050;3.716;2022-11-03T00:08:38;13.20;99.90
13960;DHT22;7052;51.050;3.716;2022-11-03T00:11:09;13.20;99.90
13960;DHT22;7052;51.050;3.716;2022-11-03T00:13:49;13.30;99.90
13960;DHT22;7052;51.050;3.716;2022-11-03T00:16:20;13.30;99.90
13960;DHT22;7052;51.050;3.716;2022-11-03T00:18:47;13.20;99.90
13960;DHT22;7052;51.050;3.716;2022-11-03T00:21:13;13.20;99.90
13960;DHT22;7052;51.050;3.716;2022-11-03T00:23:42;13.20;99.90
13960;DHT22;7052;51.050;3.716;2022-11-03T00:26:12;13.10;99.90
13960;DHT22;7052;51.050;3.716;2022-11-03T00:28:41;13.10;99.90
13960;DHT22;7052;51.050;3.716;2022-11-03T00:31:10;13.00;99.90
13960;DHT22;7052;51.050;3.716;2022-11-03T00:33:39;13.00;99.90
13960;DHT22;7052;51.050;3.716;2022-11-03T00:36:08;13.00;99.90
13960;DHT22;7052;51.050;3.716;2022-11-03T00:38:37;12.90;99.90
13960;DHT22;7052;51.050;3.716;2022-11-03T00:41:05;12.90;99.90
13960;DHT22;7052;51.050;3.716;2022-11-03T00:43:34;12.90;99.90
13960;DHT22;7052;51.050;3.716;2022-11-03T00:46:01;12.90;99.90
13960;DHT22;7052;51.050;3.716;2022-11-03T00:48:30;12.90;99.90
13960;DHT22;7052;51.050;3.716;2022-11-03T00:51:06;12.90;99.90
13960;DHT22;7052;51.050;3.716;2022-11-03T00:53:34;13.00;99.90
13960;DHT22;7052;51.050;3.716;2022-11-03T00:56:03;12.90;99.90
13960;DHT22;7052;51.050;3.716;2022-11-03T00:58:31;13.00;99.90
13960;DHT22;7052;51.050;3.716;2022-11-03T01:00:59;13.00;99.90
13960;DHT22;7052;51.050;3.716;2022-11-03T01:03:26;13.00;99.90
13960;DHT22;7052;51.050;3.716;2022-11-03T01:05:54;12.90;99.90
13960;DHT22;7052;51.050;3.716;2022-11-03T01:08:40;12.90;99.90
13960;DHT22;7052;51.050;3.716;2022-11-03T01:11:09;13.00;99.90
13960;DHT22;7052;51.050;3.716;2022-11-03T01:13:54;13.00;99.90
13960;DHT22;7052;51.050;3.716;2022-11-03T01:16:21;13.00;99.90
13960;DHT22;7052;51.050;3.716;2022-11-03T01:18:49;13.00;99.90
13960;DHT22;7052;51.050;3.716;2022-11-03T01:21:16;13.00;99.90
13960;DHT22;7052;51.050;3.716;2022-11-03T01:23:45;13.00;99.90
13960;DHT22;7052;51.050;3.716;2022-11-03T01:26:12;13.00;99.90
13960;DHT22;7052;51.050;3.716;2022-11-03T01:28:42;13.00;99.90
13960;DHT22;7052;51.050;3.716;2022-11-03T01:31:10;13.00;99.90
13960;DHT22;7052;51.050;3.716;2022-11-03T01:33:38;13.00;99.90
13960;DHT22;7052;51.050;3.716;2022-11-03T01:36:05;13.00;99.90
13960;DHT22;7052;51.050;3.716;2022-11-03T01:38:34;13.00;99.90
13960;DHT22;7052;51.050;3.716;2022-11-03T01:41:06;13.00;99.90
13960;DHT22;7052;51.050;3.716;2022-11-03T01:43:33;13.00;99.90
13960;DHT22;7052;51.050;3.716;2022-11-03T01:46:05;13.00;99.90
13960;DHT22;7052;51.050;3.716;2022-11-03T01:48:34;12.90;99.90
13960;DHT22;7052;51.050;3.716;2022-11-03T01:51:03;12.90;99.90
13960;DHT22;7052;51.050;3.716;2022-11-03T01:53:32;12.90;99.90
13960;DHT22;7052;51.050;3.716;2022-11-03T01:56:03;12.90;99.90
13960;DHT22;7052;51.050;3.716;2022-11-03T01:58:32;13.00;99.90
13960;DHT22;7052;51.050;3.716;2022-11-03T02:01:00;12.90;99.90
13960;DHT22;7052;51.050;3.716;2022-11-03T02:03:32;13.00;99.90
13960;DHT22;7052;51.050;3.716;2022-11-03T02:06:00;12.90;99.90
13960;DHT22;7052;51.050;3.716;2022-11-03T02:08:32;12.90;99.90
13960;DHT22;7052;51.050;3.716;2022-11-03T02:10:59;12.90;99.90
13960;DHT22;7052;51.050;3.716;2022-11-03T02:13:48;12.90;99.90
13960;DHT22;7052;51.050;3.716;2022-11-03T02:16:14;12.90;99.90
13960;DHT22;7052;51.050;3.716;2022-11-03T02:18:42;12.90;99.90
13960;DHT22;7052;51.050;3.716;2022-11-03T02:21:15;13.00;99.90
13960;DHT22;7052;51.050;3.716;2022-11-03T02:23:49;13.00;99.90
13960;DHT22;7052;51.050;3.716;2022-11-03T02:26:20;13.00;99.90
13960;DHT22;7052;51.050;3.716;2022-11-03T02:28:47;13.00;99.90
13960;DHT22;7052;51.050;3.716;2022-11-03T02:31:16;13.00;99.90
13960;DHT22;7052;51.050;3.716;2022-11-03T02:33:51;13.00;99.90
13960;DHT22;7052;51.050;3.716;2022-11-03T02:36:23;13.00;99.90
13960;DHT22;7052;51.050;3.716;2022-11-03T02:38:56;12.90;99.90
13960;DHT22;7052;51.050;3.716;2022-11-03T02:41:26;12.90;99.90
13960;DHT22;7052;51.050;3.716;2022-11-03T02:43:55;12.90;99.90
13960;DHT22;7052;51.050;3.716;2022-11-03T02:46:23;12.90;99.90
13960;DHT22;7052;51.050;3.716;2022-11-03T02:48:51;12.90;99.90
13960;DHT22;7052;51.050;3.716;2022-11-03T02:51:18;12.90;99.90
13960;DHT22;7052;51.050;3.716;2022-11-03T02:53:58;12.90;99.90
13960;DHT22;7052;51.050;3.716;2022-11-03T02:56:30;12.90;99.90
13960;DHT22;7052;51.050;3.716;2022-11-03T02:59:01;13.00;99.90
13960;DHT22;7052;51.050;3.716;2022-11-03T03:01:31;13.00;99.90
13960;DHT22;7052;51.050;3.716;2022-11-03T03:04:01;12.90;99.90
13960;DHT22;7052;51.050;3.716;2022-11-03T03:06:33;12.90;99.90
13960;DHT22;7052;51.050;3.716;2022-11-03T03:09:05;12.90;99.90
13960;DHT22;7052;51.050;3.716;2022-11-03T03:11:36;12.90;99.90
13960;DHT22;7052;51.050;3.716;2022-11-03T03:14:10;13.00;99.90
13960;DHT22;7052;51.050;3.716;2022-11-03T03:16:45;12.90;99.90
13960;DHT22;7052;51.050;3.716;2022-11-03T03:19:30;12.90;99.90
13960;DHT22;7052;51.050;3.716;2022-11-03T03:22:06;12.90;99.90
13960;DHT22;7052;51.050;3.716;2022-11-03T03:24:44;12.90;99.90
13960;DHT22;7052;51.050;3.716;2022-11-03T03:27:15;12.90;99.90
13960;DHT22;7052;51.050;3.716;2022-11-03T03:29:47;12.90;99.90
13960;DHT22;7052;51.050;3.716;2022-11-03T03:32:18;12.90;99.90
13960;DHT22;7052;51.050;3.716;2022-11-03T03:34:48;12.90;99.90
13960;DHT22;7052;51.050;3.716;2022-11-03T03:37:17;12.90;99.90
13960;DHT22;7052;51.050;3.716;2022-11-03T03:39:50;13.00;99.90
13960;DHT22;7052;51.050;3.716;2022-11-03T03:42:20;13.00;99.90
13960;DHT22;7052;51.050;3.716;2022-11-03T03:44:51;13.00;99.90
13960;DHT22;7052;51.050;3.716;2022-11-03T03:47:21;13.00;99.90
13960;DHT22;7052;51.050;3.716;2022-11-03T03:49:49;13.00;99.90
13960;DHT22;7052;51.050;3.716;2022-11-03T03:52:16;13.20;99.90
13960;DHT22;7052;51.050;3.716;2022-11-03T03:54:43;13.20;99.90
13960;DHT22;7052;51.050;3.716;2022-11-03T03:57:12;13.10;99.90
13960;DHT22;7052;51.050;3.716;2022-11-03T03:59:42;13.10;99.90
13960;DHT22;7052;51.050;3.716;2022-11-03T04:02:09;13.20;99.90
13960;DHT22;7052;51.050;3.716;2022-11-03T04:04:36;13.10;99.90
13960;DHT22;7052;51.050;3.716;2022-11-03T04:07:04;13.10;99.90
13960;DHT22;7052;51.050;3.716;2022-11-03T04:09:48;13.10;99.90
13960;DHT22;7052;51.050;3.716;2022-11-03T04:12:15;13.10;99.90
13960;DHT22;7052;51.050;3.716;2022-11-03T04:15:01;13.10;99.90
13960;DHT22;7052;51.050;3.716;2022-11-03T04:17:46;13.10;99.90
13960;DHT22;7052;51.050;3.716;2022-11-03T04:20:31;13.10;99.90
13960;DHT22;7052;51.050;3.716;2022-11-03T04:23:16;13.00;99.90
13960;DHT22;7052;51.050;3.716;2022-11-03T04:25:47;13.00;99.90
13960;DHT22;7052;51.050;3.716;2022-11-03T04:28:14;13.10;99.90
13960;DHT22;7052;51.050;3.716;2022-11-03T04:30:43;13.00;99.90
13960;DHT22;7052;51.050;3.716;2022-11-03T04:33:14;13.10;99.90
13960;DHT22;7052;51.050;3.716;2022-11-03T04:35:42;13.20;99.90
13960;DHT22;7052;51.050;3.716;2022-11-03T04:38:22;13.10;99.90
13960;DHT22;7052;51.050;3.716;2022-11-03T04:40:52;13.20;99.90
13960;DHT22;7052;51.050;3.716;2022-11-03T04:43:20;13.10;99.90
13960;DHT22;7052;51.050;3.716;2022-11-03T04:45:49;13.20;99.90
13960;DHT22;7052;51.050;3.716;2022-11-03T04:48:18;13.10;99.90
13960;DHT22;7052;51.050;3.716;2022-11-03T04:50:48;13.10;99.90
13960;DHT22;7052;51.050;3.716;2022-11-03T04:53:17;13.20;99.90
13960;DHT22;7052;51.050;3.716;2022-11-03T04:55:46;13.20;99.90
13960;DHT22;7052;51.050;3.716;2022-11-03T04:58:18;13.20;99.90
13960;DHT22;7052;51.050;3.716;2022-11-03T05:00:46;13.20;99.90
13960;DHT22;7052;51.050;3.716;2022-11-03T05:03:16;13.20;99.90
13960;DHT22;7052;51.050;3.716;2022-11-03T05:05:45;13.10;99.90
13960;DHT22;7052;51.050;3.716;2022-11-03T05:08:12;13.10;99.90
13960;DHT22;7052;51.050;3.716;2022-11-03T05:10:40;13.10;99.90
13960;DHT22;7052;51.050;3.716;2022-11-03T05:13:14;13.10;99.90
13960;DHT22;7052;51.050;3.716;2022-11-03T05:15:44;13.10;99.90
13960;DHT22;7052;51.050;3.716;2022-11-03T05:18:17;13.10;99.90
13960;DHT22;7052;51.050;3.716;2022-11-03T05:20:48;13.10;99.90
13960;DHT22;7052;51.050;3.716;2022-11-03T05:23:17;13.10;99.90
13960;DHT22;7052;51.050;3.716;2022-11-03T05:25:47;13.10;99.90
13960;DHT22;7052;51.050;3.716;2022-11-03T05:28:21;13.20;99.90
13960;DHT22;7052;51.050;3.716;2022-11-03T05:30:50;13.20;99.90
13960;DHT22;7052;51.050;3.716;2022-11-03T05:33:25;13.20;99.90
13960;DHT22;7052;51.050;3.716;2022-11-03T05:35:52;13.20;99.90
13960;DHT22;7052;51.050;3.716;2022-11-03T05:38:21;13.20;99.90
13960;DHT22;7052;51.050;3.716;2022-11-03T05:40:51;13.20;99.90
13960;DHT22;7052;51.050;3.716;2022-11-03T05:43:20;13.20;99.90
13960;DHT22;7052;51.050;3.716;2022-11-03T05:45:48;13.10;99.90
13960;DHT22;7052;51.050;3.716;2022-11-03T05:48:18;13.20;99.90
13960;DHT22;7052;51.050;3.716;2022-11-03T05:50:49;13.20;99.90
13960;DHT22;7052;51.050;3.716;2022-11-03T05:53:29;13.20;99.90
13960;DHT22;7052;51.050;3.716;2022-11-03T05:55:59;13.20;99.90
13960;DHT22;7052;51.050;3.716;2022-11-03T05:58:30;13.20;99.90
13960;DHT22;7052;51.050;3.716;2022-11-03T06:00:59;13.20;99.90
13960;DHT22;7052;51.050;3.716;2022-11-03T06:03:29;13.30;99.90
13960;DHT22;7052;51.050;3.716;2022-11-03T06:05:59;13.30;99.90
13960;DHT22;7052;51.050;3.716;2022-11-03T06:08:32;13.20;99.90
13960;DHT22;7052;51.050;3.716;2022-11-03T06:11:00;13.20;99.90
13960;DHT22;7052;51.050;3.716;2022-11-03T06:13:30;13.20;99.90
13960;DHT22;7052;51.050;3.716;2022-11-03T06:16:02;13.30;99.90
13960;DHT22;7052;51.050;3.716;2022-11-03T06:18:31;13.40;99.90
13960;DHT22;7052;51.050;3.716;2022-11-03T06:21:05;13.30;99.90
13960;DHT22;7052;51.050;3.716;2022-11-03T06:23:33;13.20;99.90
13960;DHT22;7052;51.050;3.716;2022-11-03T06:26:02;13.30;99.90
13960;DHT22;7052;51.050;3.716;2022-11-03T06:28:32;13.30;99.90
13960;DHT22;7052;51.050;3.716;2022-11-03T06:31:01;13.30;99.90
13960;DHT22;7052;51.050;3.716;2022-11-03T06:33:33;13.20;99.90
13960;DHT22;7052;51.050;3.716;2022-11-03T06:36:10;13.30;99.90
13960;DHT22;7052;51.050;3.716;2022-11-03T06:38:39;13.30;99.90
13960;DHT22;7052;51.050;3.716;2022-11-03T06:41:14;13.20;99.90
13960;DHT22;7052;51.050;3.716;2022-11-03T06:43:45;13.30;99.90
13960;DHT22;7052;51.050;3.716;2022-11-03T06:46:14;13.30;99.90
13960;DHT22;7052;51.050;3.716;2022-11-03T06:48:44;13.30;99.90
13960;DHT22;7052;51.050;3.716;2022-11-03T06:51:17;13.30;99.90
13960;DHT22;7052;51.050;3.716;2022-11-03T06:53:46;13.30;99.90
13960;DHT22;7052;51.050;3.716;2022-11-03T06:56:15;13.30;99.90
13960;DHT22;7052;51.050;3.716;2022-11-03T06:58:45;13.40;99.90
13960;DHT22;7052;51.050;3.716;2022-11-03T07:01:14;13.40;99.90
13960;DHT22;7052;51.050;3.716;2022-11-03T07:03:42;13.50;99.90
13960;DHT22;7052;51.050;3.716;2022-11-03T07:06:16;13.50;99.90
13960;DHT22;7052;51.050;3.716;2022-11-03T07:08:47;13.50;99.90
13960;DHT22;7052;51.050;3.716;2022-11-03T07:11:17;13.60;99.90
13960;DHT22;7052;51.050;3.716;2022-11-03T07:13:45;13.60;99.90
13960;DHT22;7052;51.050;3.716;2022-11-03T07:16:17;13.60;99.90
13960;DHT22;7052;51.050;3.716;2022-11-03T07:18:45;13.60;99.90
13960;DHT22;7052;51.050;3.716;2022-11-03T07:21:33;13.60;99.90
13960;DHT22;7052;51.050;3.716;2022-11-03T07:24:03;13.50;99.90
13960;DHT22;7052;51.050;3.716;2022-11-03T07:26:31;13.60;99.90
13960;DHT22;7052;51.050;3.716;2022-11-03T07:28:59;13.60;99.90
13960;DHT22;7052;51.050;3.716;2022-11-03T07:31:26;13.60;99.90
13960;DHT22;7052;51.050;3.716;2022-11-03T07:33:56;13.60;99.90
13960;DHT22;7052;51.050;3.716;2022-11-03T07:36:24;13.60;99.90
13960;DHT22;7052;51.050;3.716;2022-11-03T07:38:55;13.50;99.90
13960;DHT22;7052;51.050;3.716;2022-11-03T07:41:26;13.50;99.90
13960;DHT22;7052;51.050;3.716;2022-11-03T07:43:57;13.50;99.90
13960;DHT22;7052;51.050;3.716;2022-11-03T07:46:25;13.60;99.90
13960;DHT22;7052;51.050;3.716;2022-11-03T07:48:53;13.50;99.90
13960;DHT22;7052;51.050;3.716;2022-11-03T07:51:23;13.50;99.90
13960;DHT22;7052;51.050;3.716;2022-11-03T07:53:53;13.50;99.90
13960;DHT22;7052;51.050;3.716;2022-11-03T07:56:22;13.50;99.90
13960;DHT22;7052;51.050;3.716;2022-11-03T07:58:52;13.50;99.90
13960;DHT22;7052;51.050;3.716;2022-11-03T08:01:30;13.50;99.90
13960;DHT22;7052;51.050;3.716;2022-11-03T08:04:00;13.50;99.90
13960;DHT22;7052;51.050;3.716;2022-11-03T08:06:29;13.50;99.90
13960;DHT22;7052;51.050;3.716;2022-11-03T08:08:57;13.50;99.90
13960;DHT22;7052;51.050;3.716;2022-11-03T08:11:24;13.60;99.90
13960;DHT22;7052;51.050;3.716;2022-11-03T08:13:52;13.60;99.90
13960;DHT22;7052;51.050;3.716;2022-11-03T08:16:19;13.50;99.90
13960;DHT22;7052;51.050;3.716;2022-11-03T08:18:46;13.50;99.90
13960;DHT22;7052;51.050;3.716;2022-11-03T08:21:13;13.50;99.90
13960;DHT22;7052;51.050;3.716;2022-11-03T08:23:42;13.50;99.90
13960;DHT22;7052;51.050;3.716;2022-11-03T08:26:15;13.60;99.90
13960;DHT22;7052;51.050;3.716;2022-11-03T08:28:42;13.60;99.90
13960;DHT22;7052;51.050;3.716;2022-11-03T08:31:09;13.70;99.90
13960;DHT22;7052;51.050;3.716;2022-11-03T08:33:36;13.60;99.90
13960;DHT22;7052;51.050;3.716;2022-11-03T08:36:05;13.60;99.90
13960;DHT22;7052;51.050;3.716;2022-11-03T08:38:32;13.60;99.90
13960;DHT22;7052;51.050;3.716;2022-11-03T08:41:00;13.60;99.90
13960;DHT22;7052;51.050;3.716;2022-11-03T08:43:29;13.60;99.90
13960;DHT22;7052;51.050;3.716;2022-11-03T08:45:55;13.70;99.90
13960;DHT22;7052;51.050;3.716;2022-11-03T08:48:24;13.60;99.90
13960;DHT22;7052;51.050;3.716;2022-11-03T08:50:52;13.60;99.90
13960;DHT22;7052;51.050;3.716;2022-11-03T08:53:20;13.70;99.90
13960;DHT22;7052;51.050;3.716;2022-11-03T08:55:46;13.60;99.90
13960;DHT22;7052;51.050;3.716;2022-11-03T08:58:13;13.60;99.90
13960;DHT22;7052;51.050;3.716;2022-11-03T09:00:41;13.60;99.90
13960;DHT22;7052;51.050;3.716;2022-11-03T09:03:08;13.60;99.90
13960;DHT22;7052;51.050;3.716;2022-11-03T09:05:40;13.60;99.90
13960;DHT22;7052;51.050;3.716;2022-11-03T09:08:10;13.60;99.90
13960;DHT22;7052;51.050;3.716;2022-11-03T09:10:45;13.60;99.90
13960;DHT22;7052;51.050;3.716;2022-11-03T09:13:12;13.70;99.90
13960;DHT22;7052;51.050;3.716;2022-11-03T09:15:40;13.70;99.90
13960;DHT22;7052;51.050;3.716;2022-11-03T09:18:07;13.80;99.90
13960;DHT22;7052;51.050;3.716;2022-11-03T09:20:34;13.90;99.90
13960;DHT22;7052;51.050;3.716;2022-11-03T09:23:00;13.90;99.90
13960;DHT22;7052;51.050;3.716;2022-11-03T09:25:27;13.90;99.90
13960;DHT22;7052;51.050;3.716;2022-11-03T09:27:54;13.90;99.90
13960;DHT22;7052;51.050;3.716;2022-11-03T09:30:21;13.90;99.90
13960;DHT22;7052;51.050;3.716;2022-11-03T09:32:49;13.90;99.90
13960;DHT22;7052;51.050;3.716;2022-11-03T09:35:17;13.80;99.90
13960;DHT22;7052;51.050;3.716;2022-11-03T09:37:44;13.80;99.90
13960;DHT22;7052;51.050;3.716;2022-11-03T09:40:14;13.80;99.90
13960;DHT22;7052;51.050;3.716;2022-11-03T09:42:44;13.90;99.90
13960;DHT22;7052;51.050;3.716;2022-11-03T09:45:13;13.80;99.90
13960;DHT22;7052;51.050;3.716;2022-11-03T09:47:41;13.90;99.90
13960;DHT22;7052;51.050;3.716;2022-11-03T09:50:15;13.90;99.90
13960;DHT22;7052;51.050;3.716;2022-11-03T09:52:44;14.00;99.90
13960;DHT22;7052;51.050;3.716;2022-11-03T09:55:16;14.00;99.90
13960;DHT22;7052;51.050;3.716;2022-11-03T09:57:45;14.10;99.90
13960;DHT22;7052;51.050;3.716;2022-11-03T10:00:18;14.20;99.90
13960;DHT22;7052;51.050;3.716;2022-11-03T10:02:46;14.30;99.90
13960;DHT22;7052;51.050;3.716;2022-11-03T10:05:22;14.20;99.90
13960;DHT22;7052;51.050;3.716;2022-11-03T10:07:53;14.30;99.90
13960;DHT22;7052;51.050;3.716;2022-11-03T10:10:23;14.40;99.90
13960;DHT22;7052;51.050;3.716;2022-11-03T10:12:51;14.40;99.90
13960;DHT22;7052;51.050;3.716;2022-11-03T10:15:22;14.50;99.90
13960;DHT22;7052;51.050;3.716;2022-11-03T10:17:51;14.50;99.90
13960;DHT22;7052;51.050;3.716;2022-11-03T10:20:21;14.60;99.90
13960;DHT22;7052;51.050;3.716;2022-11-03T10:22:51;14.70;99.90
13960;DHT22;7052;51.050;3.716;2022-11-03T10:25:29;14.80;99.90
13960;DHT22;7052;51.050;3.716;2022-11-03T10:28:17;14.90;99.90
13960;DHT22;7052;51.050;3.716;2022-11-03T10:30:49;15.00;99.90
13960;DHT22;7052;51.050;3.716;2022-11-03T10:33:29;15.20;99.90
13960;DHT22;7052;51.050;3.716;2022-11-03T10:35:59;15.20;99.90
13960;DHT22;7052;51.050;3.716;2022-11-03T10:38:29;15.30;99.90
13960;DHT22;7052;51.050;3.716;2022-11-03T10:41:09;15.30;99.90
13960;DHT22;7052;51.050;3.716;2022-11-03T10:43:36;15.20;99.90
13960;DHT22;7052;51.050;3.716;2022-11-03T10:46:17;15.20;99.90
13960;DHT22;7052;51.050;3.716;2022-11-03T10:49:02;15.20;99.90
13960;DHT22;7052;51.050;3.716;2022-11-03T10:51:36;15.20;99.90
13960;DHT22;7052;51.050;3.716;2022-11-03T10:54:04;15.30;99.90
13960;DHT22;7052;51.050;3.716;2022-11-03T10:56:34;15.40;99.90
13960;DHT22;7052;51.050;3.716;2022-11-03T10:59:05;15.40;99.90
13960;DHT22;7052;51.050;3.716;2022-11-03T11:01:36;15.50;99.90
13960;DHT22;7052;51.050;3.716;2022-11-03T11:04:04;15.50;99.90
13960;DHT22;7052;51.050;3.716;2022-11-03T11:06:32;15.60;99.90
13960;DHT22;7052;51.050;3.716;2022-11-03T11:09:02;15.50;99.90
13960;DHT22;7052;51.050;3.716;2022-11-03T11:11:29;15.60;99.90
13960;DHT22;7052;51.050;3.716;2022-11-03T11:14:21;15.50;99.90
13960;DHT22;7052;51.050;3.716;2022-11-03T11:16:50;15.60;99.90
13960;DHT22;7052;51.050;3.716;2022-11-03T11:19:17;15.60;99.90
13960;DHT22;7052;51.050;3.716;2022-11-03T11:22:20;15.70;99.90
13960;DHT22;7052;51.050;3.716;2022-11-03T11:25:01;15.70;99.90
13960;DHT22;7052;51.050;3.716;2022-11-03T11:33:48;15.70;99.90
13960;DHT22;7052;51.050;3.716;2022-11-03T11:36:21;15.70;99.90
13960;DHT22;7052;51.050;3.716;2022-11-03T11:38:59;15.60;99.90
13960;DHT22;7052;51.050;3.716;2022-11-03T11:45:01;15.70;99.90
13960;DHT22;7052;51.050;3.716;2022-11-03T11:47:46;15.70;99.90
13960;DHT22;7052;51.050;3.716;2022-11-03T11:50:29;15.80;99.90
13960;DHT22;7052;51.050;3.716;2022-11-03T11:53:11;15.90;99.90
13960;DHT22;7052;51.050;3.716;2022-11-03T11:55:43;16.00;99.90
13960;DHT22;7052;51.050;3.716;2022-11-03T11:58:25;15.90;99.90
13960;DHT22;7052;51.050;3.716;2022-11-03T12:00:56;15.80;99.90
13960;DHT22;7052;51.050;3.716;2022-11-03T12:03:28;15.80;99.90
13960;DHT22;7052;51.050;3.716;2022-11-03T12:05:55;15.70;99.90
13960;DHT22;7052;51.050;3.716;2022-11-03T12:08:28;15.80;99.90
13960;DHT22;7052;51.050;3.716;2022-11-03T12:10:59;15.80;99.90
13960;DHT22;7052;51.050;3.716;2022-11-03T12:13:34;15.80;99.90
13960;DHT22;7052;51.050;3.716;2022-11-03T12:16:01;15.90;99.90
13960;DHT22;7052;51.050;3.716;2022-11-03T12:18:33;15.90;99.90
13960;DHT22;7052;51.050;3.716;2022-11-03T12:21:02;15.90;99.90
13960;DHT22;7052;51.050;3.716;2022-11-03T12:23:38;15.90;99.90
13960;DHT22;7052;51.050;3.716;2022-11-03T12:29:15;16.10;99.90
13960;DHT22;7052;51.050;3.716;2022-11-03T12:31:42;16.10;99.90
13960;DHT22;7052;51.050;3.716;2022-11-03T12:34:15;16.20;99.90
13960;DHT22;7052;51.050;3.716;2022-11-03T12:36:42;16.30;99.90
13960;DHT22;7052;51.050;3.716;2022-11-03T12:39:09;16.30;99.90
13960;DHT22;7052;51.050;3.716;2022-11-03T12:41:37;16.30;99.90
13960;DHT22;7052;51.050;3.716;2022-11-03T12:44:04;16.40;99.90
13960;DHT22;7052;51.050;3.716;2022-11-03T12:46:32;16.30;99.90
13960;DHT22;7052;51.050;3.716;2022-11-03T12:48:59;16.30;99.90
13960;DHT22;7052;51.050;3.716;2022-11-03T12:51:26;16.30;99.90
13960;DHT22;7052;51.050;3.716;2022-11-03T12:53:53;16.30;99.90
13960;DHT22;7052;51.050;3.716;2022-11-03T12:56:20;16.20;99.90
13960;DHT22;7052;51.050;3.716;2022-11-03T12:58:47;16.30;99.90
13960;DHT22;7052;51.050;3.716;2022-11-03T13:01:14;16.20;99.90
13960;DHT22;7052;51.050;3.716;2022-11-03T13:03:43;16.10;99.90
13960;DHT22;7052;51.050;3.716;2022-11-03T13:06:10;16.20;99.90
13960;DHT22;7052;51.050;3.716;2022-11-03T13:08:39;16.10;99.90
13960;DHT22;7052;51.050;3.716;2022-11-03T13:11:07;16.10;99.90
13960;DHT22;7052;51.050;3.716;2022-11-03T13:13:55;16.00;99.90
13960;DHT22;7052;51.050;3.716;2022-11-03T13:16:24;16.00;99.90
13960;DHT22;7052;51.050;3.716;2022-11-03T13:18:53;15.90;99.90
13960;DHT22;7052;51.050;3.716;2022-11-03T13:21:19;16.00;99.90
13960;DHT22;7052;51.050;3.716;2022-11-03T13:23:46;15.90;99.90
13960;DHT22;7052;51.050;3.716;2022-11-03T13:26:13;15.80;99.90
13960;DHT22;7052;51.050;3.716;2022-11-03T13:28:40;15.80;99.90
13960;DHT22;7052;51.050;3.716;2022-11-03T13:31:07;15.80;99.90
13960;DHT22;7052;51.050;3.716;2022-11-03T13:33:35;15.80;99.90
13960;DHT22;7052;51.050;3.716;2022-11-03T13:36:10;15.80;99.90
13960;DHT22;7052;51.050;3.716;2022-11-03T13:38:37;15.90;99.90
13960;DHT22;7052;51.050;3.716;2022-11-03T13:41:04;15.90;99.90
13960;DHT22;7052;51.050;3.716;2022-11-03T13:43:31;15.90;99.90
13960;DHT22;7052;51.050;3.716;2022-11-03T13:45:58;15.90;99.90
13960;DHT22;7052;51.050;3.716;2022-11-03T13:48:26;15.80;99.90
13960;DHT22;7052;51.050;3.716;2022-11-03T13:50:53;15.80;99.90
13960;DHT22;7052;51.050;3.716;2022-11-03T13:53:22;15.80;99.90
13960;DHT22;7052;51.050;3.716;2022-11-03T13:55:50;15.80;99.90
13960;DHT22;7052;51.050;3.716;2022-11-03T13:58:17;15.70;99.90
13960;DHT22;7052;51.050;3.716;2022-11-03T14:00:45;15.60;99.90
13960;DHT22;7052;51.050;3.716;2022-11-03T14:03:11;15.60;99.90
13960;DHT22;7052;51.050;3.716;2022-11-03T14:05:38;15.50;99.90
13960;DHT22;7052;51.050;3.716;2022-11-03T14:08:05;15.50;99.90
13960;DHT22;7052;51.050;3.716;2022-11-03T14:10:34;15.40;99.90
13960;DHT22;7052;51.050;3.716;2022-11-03T14:13:00;15.40;99.90
13960;DHT22;7052;51.050;3.716;2022-11-03T14:15:27;15.20;99.90
13960;DHT22;7052;51.050;3.716;2022-11-03T14:17:57;15.40;99.90
13960;DHT22;7052;51.050;3.716;2022-11-03T14:20:24;15.30;99.90
13960;DHT22;7052;51.050;3.716;2022-11-03T14:22:51;15.30;99.90
13960;DHT22;7052;51.050;3.716;2022-11-03T14:25:17;15.20;99.90
13960;DHT22;7052;51.050;3.716;2022-11-03T14:27:46;15.30;99.90
13960;DHT22;7052;51.050;3.716;2022-11-03T14:30:13;15.30;99.90
13960;DHT22;7052;51.050;3.716;2022-11-03T14:32:41;15.20;99.90
13960;DHT22;7052;51.050;3.716;2022-11-03T14:35:11;15.10;99.90
13960;DHT22;7052;51.050;3.716;2022-11-03T14:37:42;15.00;99.90
13960;DHT22;7052;51.050;3.716;2022-11-03T14:40:09;14.90;99.90
13960;DHT22;7052;51.050;3.716;2022-11-03T14:42:58;14.80;99.90
13960;DHT22;7052;51.050;3.716;2022-11-03T14:45:25;14.80;99.90
13960;DHT22;7052;51.050;3.716;2022-11-03T14:47:53;14.70;99.90
13960;DHT22;7052;51.050;3.716;2022-11-03T14:50:21;14.60;99.90
13960;DHT22;7052;51.050;3.716;2022-11-03T14:52:47;14.50;99.90
13960;DHT22;7052;51.050;3.716;2022-11-03T14:55:15;14.50;99.90
13960;DHT22;7052;51.050;3.716;2022-11-03T14:57:42;14.50;99.90
13960;DHT22;7052;51.050;3.716;2022-11-03T15:00:11;14.50;99.90
13960;DHT22;7052;51.050;3.716;2022-11-03T15:02:38;14.40;99.90
13960;DHT22;7052;51.050;3.716;2022-11-03T15:05:05;14.30;99.90
13960;DHT22;7052;51.050;3.716;2022-11-03T15:07:52;14.20;99.90
13960;DHT22;7052;51.050;3.716;2022-11-03T15:10:19;14.20;99.90
13960;DHT22;7052;51.050;3.716;2022-11-03T15:12:47;14.20;99.90
13960;DHT22;7052;51.050;3.716;2022-11-03T15:15:16;14.10;99.90
13960;DHT22;7052;51.050;3.716;2022-11-03T15:17:43;14.10;99.90
13960;DHT22;7052;51.050;3.716;2022-11-03T15:20:12;14.00;99.90
13960;DHT22;7052;51.050;3.716;2022-11-03T15:22:39;13.90;99.90
13960;DHT22;7052;51.050;3.716;2022-11-03T15:25:06;13.90;99.90
13960;DHT22;7052;51.050;3.716;2022-11-03T15:27:35;13.80;99.90
13960;DHT22;7052;51.050;3.716;2022-11-03T15:30:02;13.70;99.90
13960;DHT22;7052;51.050;3.716;2022-11-03T15:32:30;13.60;99.90
13960;DHT22;7052;51.050;3.716;2022-11-03T15:34:57;13.60;99.90
13960;DHT22;7052;51.050;3.716;2022-11-03T15:37:24;13.50;99.90
13960;DHT22;7052;51.050;3.716;2022-11-03T15:39:51;13.40;99.90
13960;DHT22;7052;51.050;3.716;2022-11-03T15:42:19;13.40;99.90
13960;DHT22;7052;51.050;3.716;2022-11-03T15:44:46;13.30;99.90
13960;DHT22;7052;51.050;3.716;2022-11-03T15:47:13;13.30;99.90
13960;DHT22;7052;51.050;3.716;2022-11-03T15:49:42;13.20;99.90
13960;DHT22;7052;51.050;3.716;2022-11-03T15:52:08;13.20;99.90
13960;DHT22;7052;51.050;3.716;2022-11-03T15:54:35;13.30;99.90
13960;DHT22;7052;51.050;3.716;2022-11-03T15:57:02;13.20;99.90
13960;DHT22;7052;51.050;3.716;2022-11-03T15:59:29;13.20;99.90
13960;DHT22;7052;51.050;3.716;2022-11-03T16:01:56;13.20;99.90
13960;DHT22;7052;51.050;3.716;2022-11-03T16:04:23;13.20;99.90
13960;DHT22;7052;51.050;3.716;2022-11-03T16:06:51;13.10;99.90
13960;DHT22;7052;51.050;3.716;2022-11-03T16:09:18;13.10;99.90
13960;DHT22;7052;51.050;3.716;2022-11-03T16:11:46;13.10;99.90
13960;DHT22;7052;51.050;3.716;2022-11-03T16:14:12;13.00;99.90
13960;DHT22;7052;51.050;3.716;2022-11-03T16:16:39;13.00;99.90